sensor_id;sensor_type;location;lat;lon;timestamp;temperature;humidity
72762;SHT30;60886;55.034;73.150;2022-10-23T00:01:26;-0.90;87.87
72762;SHT30;60886;55.034;73.150;2022-10-23T00:03:55;-0.92;88.09
72762;SHT30;60886;55.034;73.150;2022-10-23T00:06:34;-0.88;87.89
72762;SHT30;60886;55.034;73.150;2022-10-23T00:09:00;-0.88;87.95
72762;SHT30;60886;55.034;73.150;2022-10-23T00:11:29;-0.92;87.55
72762;SHT30;60886;55.034;73.150;2022-10-23T00:14:01;-0.91;88.34
72762;SHT30;60886;55.034;73.150;2022-10-23T00:16:33;-0.94;87.85
72762;SHT30;60886;55.034;73.150;2022-10-23T00:19:06;-0.94;87.80
72762;SHT30;60886;55.034;73.150;2022-10-23T00:21:32;-0.97;87.94
72762;SHT30;60886;55.034;73.150;2022-10-23T00:23:58;-0.95;87.63
72762;SHT30;60886;55.034;73.150;2022-10-23T00:26:25;-0.98;87.90
72762;SHT30;60886;55.034;73.150;2022-10-23T00:28:53;-0.98;87.96
72762;SHT30;60886;55.034;73.150;2022-10-23T00:31:21;-1.01;87.57
72762;SHT30;60886;55.034;73.150;2022-10-23T00:33:48;-1.01;87.75
72762;SHT30;60886;55.034;73.150;2022-10-23T00:36:16;-1.05;87.89
72762;SHT30;60886;55.034;73.150;2022-10-23T00:38:49;-1.02;87.57
72762;SHT30;60886;55.034;73.150;2022-10-23T00:41:27;-1.04;87.65
72762;SHT30;60886;55.034;73.150;2022-10-23T00:44:01;-1.04;87.72
72762;SHT30;60886;55.034;73.150;2022-10-23T00:46:35;-1.05;87.64
72762;SHT30;60886;55.034;73.150;2022-10-23T00:49:03;-1.05;87.62
72762;SHT30;60886;55.034;73.150;2022-10-23T00:51:39;-1.01;87.82
72762;SHT30;60886;55.034;73.150;2022-10-23T00:54:07;-0.97;88.03
72762;SHT30;60886;55.034;73.150;2022-10-23T00:56:35;-0.95;87.60
72762;SHT30;60886;55.034;73.150;2022-10-23T00:59:05;-0.87;87.64
72762;SHT30;60886;55.034;73.150;2022-10-23T01:01:32;-0.81;87.75
72762;SHT30;60886;55.034;73.150;2022-10-23T01:04:09;-0.81;87.51
72762;SHT30;60886;55.034;73.150;2022-10-23T01:06:55;-0.77;87.42
72762;SHT30;60886;55.034;73.150;2022-10-23T01:09:32;-0.70;87.50
72762;SHT30;60886;55.034;73.150;2022-10-23T01:12:14;-0.64;87.42
72762;SHT30;60886;55.034;73.150;2022-10-23T01:17:44;-0.60;87.43
72762;SHT30;60886;55.034;73.150;2022-10-23T01:28:10;-0.50;86.12
72762;SHT30;60886;55.034;73.150;2022-10-23T01:30:42;-0.50;86.79
72762;SHT30;60886;55.034;73.150;2022-10-23T01:33:13;-0.46;86.71
72762;SHT30;60886;55.034;73.150;2022-10-23T01:35:49;-0.44;87.18
72762;SHT30;60886;55.034;73.150;2022-10-23T01:41:16;-0.44;87.08
72762;SHT30;60886;55.034;73.150;2022-10-23T01:46:39;-0.34;87.05
72762;SHT30;60886;55.034;73.150;2022-10-23T01:49:10;-0.33;87.62
72762;SHT30;60886;55.034;73.150;2022-10-23T01:51:40;-0.29;87.12
72762;SHT30;60886;55.034;73.150;2022-10-23T01:54:11;-0.30;86.71
72762;SHT30;60886;55.034;73.150;2022-10-23T01:56:42;-0.25;87.19
72762;SHT30;60886;55.034;73.150;2022-10-23T01:59:12;-0.22;87.50
72762;SHT30;60886;55.034;73.150;2022-10-23T02:01:42;-0.22;86.84
72762;SHT30;60886;55.034;73.150;2022-10-23T02:04:14;-0.23;86.65
72762;SHT30;60886;55.034;73.150;2022-10-23T02:06:43;-0.22;86.91
72762;SHT30;60886;55.034;73.150;2022-10-23T02:09:13;-0.22;86.38
72762;SHT30;60886;55.034;73.150;2022-10-23T02:11:54;-0.20;86.54
72762;SHT30;60886;55.034;73.150;2022-10-23T02:14:52;-0.22;86.31
72762;SHT30;60886;55.034;73.150;2022-10-23T02:25:27;-0.16;85.99
72762;SHT30;60886;55.034;73.150;2022-10-23T02:27:58;-0.12;86.38
72762;SHT30;60886;55.034;73.150;2022-10-23T02:30:41;-0.10;86.17
72762;SHT30;60886;55.034;73.150;2022-10-23T02:33:12;-0.06;86.55
72762;SHT30;60886;55.034;73.150;2022-10-23T02:35:39;-0.05;86.28
72762;SHT30;60886;55.034;73.150;2022-10-23T02:38:28;-0.03;85.80
72762;SHT30;60886;55.034;73.150;2022-10-23T02:41:00;0.04;86.48
72762;SHT30;60886;55.034;73.150;2022-10-23T02:43:43;0.04;86.21
72762;SHT30;60886;55.034;73.150;2022-10-23T02:46:44;0.11;86.08
72762;SHT30;60886;55.034;73.150;2022-10-23T03:00:48;0.26;86.59
72762;SHT30;60886;55.034;73.150;2022-10-23T03:03:21;0.33;86.53
72762;SHT30;60886;55.034;73.150;2022-10-23T03:05:50;0.32;86.40
72762;SHT30;60886;55.034;73.150;2022-10-23T03:08:16;0.37;86.33
72762;SHT30;60886;55.034;73.150;2022-10-23T03:10:42;0.37;86.27
72762;SHT30;60886;55.034;73.150;2022-10-23T03:13:10;0.38;85.61
72762;SHT30;60886;55.034;73.150;2022-10-23T03:15:51;0.35;85.85
72762;SHT30;60886;55.034;73.150;2022-10-23T03:18:17;0.38;85.19
72762;SHT30;60886;55.034;73.150;2022-10-23T03:20:48;0.39;85.91
72762;SHT30;60886;55.034;73.150;2022-10-23T03:23:14;0.45;86.17
72762;SHT30;60886;55.034;73.150;2022-10-23T03:25:52;0.52;86.25
72762;SHT30;60886;55.034;73.150;2022-10-23T03:28:34;0.53;86.27
72762;SHT30;60886;55.034;73.150;2022-10-23T03:31:01;0.59;85.83
72762;SHT30;60886;55.034;73.150;2022-10-23T03:33:29;0.62;85.78
72762;SHT30;60886;55.034;73.150;2022-10-23T03:36:13;0.65;85.20
72762;SHT30;60886;55.034;73.150;2022-10-23T03:38:39;0.69;85.72
72762;SHT30;60886;55.034;73.150;2022-10-23T03:41:11;0.68;85.43
72762;SHT30;60886;55.034;73.150;2022-10-23T03:43:37;0.72;85.41
72762;SHT30;60886;55.034;73.150;2022-10-23T03:46:05;0.80;86.12
72762;SHT30;60886;55.034;73.150;2022-10-23T03:48:39;0.82;85.97
72762;SHT30;60886;55.034;73.150;2022-10-23T03:51:07;0.83;85.61
72762;SHT30;60886;55.034;73.150;2022-10-23T03:53:33;0.83;85.33
72762;SHT30;60886;55.034;73.150;2022-10-23T03:56:03;0.83;85.18
72762;SHT30;60886;55.034;73.150;2022-10-23T03:58:29;0.90;85.02
72762;SHT30;60886;55.034;73.150;2022-10-23T04:00:56;0.93;84.77
72762;SHT30;60886;55.034;73.150;2022-10-23T04:03:23;0.92;85.39
72762;SHT30;60886;55.034;73.150;2022-10-23T04:05:50;0.96;85.30
72762;SHT30;60886;55.034;73.150;2022-10-23T04:08:19;0.99;84.80
72762;SHT30;60886;55.034;73.150;2022-10-23T04:10:53;0.99;84.91
72762;SHT30;60886;55.034;73.150;2022-10-23T04:13:26;1.03;84.70
72762;SHT30;60886;55.034;73.150;2022-10-23T04:16:02;1.03;84.79
72762;SHT30;60886;55.034;73.150;2022-10-23T04:18:28;1.07;85.28
72762;SHT30;60886;55.034;73.150;2022-10-23T04:20:55;1.11;85.10
72762;SHT30;60886;55.034;73.150;2022-10-23T04:23:32;1.16;84.75
72762;SHT30;60886;55.034;73.150;2022-10-23T04:25:58;1.24;84.92
72762;SHT30;60886;55.034;73.150;2022-10-23T04:28:25;1.30;84.65
72762;SHT30;60886;55.034;73.150;2022-10-23T04:31:02;1.30;84.64
72762;SHT30;60886;55.034;73.150;2022-10-23T04:33:28;1.33;84.42
72762;SHT30;60886;55.034;73.150;2022-10-23T04:35:55;1.35;84.64
72762;SHT30;60886;55.034;73.150;2022-10-23T04:38:21;1.37;83.89
72762;SHT30;60886;55.034;73.150;2022-10-23T04:40:49;1.34;83.48
72762;SHT30;60886;55.034;73.150;2022-10-23T04:43:19;1.33;83.45
72762;SHT30;60886;55.034;73.150;2022-10-23T04:45:47;1.37;84.19
72762;SHT30;60886;55.034;73.150;2022-10-23T04:48:14;1.38;83.28
72762;SHT30;60886;55.034;73.150;2022-10-23T04:51:06;1.45;83.55
72762;SHT30;60886;55.034;73.150;2022-10-23T04:54:11;1.50;84.02
72762;SHT30;60886;55.034;73.150;2022-10-23T04:56:55;1.58;83.62
72762;SHT30;60886;55.034;73.150;2022-10-23T04:59:22;1.61;83.59
72762;SHT30;60886;55.034;73.150;2022-10-23T05:01:49;1.65;83.09
72762;SHT30;60886;55.034;73.150;2022-10-23T05:04:16;1.61;82.68
72762;SHT30;60886;55.034;73.150;2022-10-23T05:07:12;1.65;83.36
72762;SHT30;60886;55.034;73.150;2022-10-23T05:10:01;1.66;82.59
72762;SHT30;60886;55.034;73.150;2022-10-23T05:12:36;1.81;83.90
72762;SHT30;60886;55.034;73.150;2022-10-23T05:15:03;1.94;83.01
72762;SHT30;60886;55.034;73.150;2022-10-23T05:17:34;1.91;82.26
72762;SHT30;60886;55.034;73.150;2022-10-23T05:20:04;1.94;82.58
72762;SHT30;60886;55.034;73.150;2022-10-23T05:22:35;1.91;82.29
72762;SHT30;60886;55.034;73.150;2022-10-23T05:25:05;2.01;83.32
72762;SHT30;60886;55.034;73.150;2022-10-23T05:27:33;2.03;82.08
72762;SHT30;60886;55.034;73.150;2022-10-23T05:30:00;2.10;82.78
72762;SHT30;60886;55.034;73.150;2022-10-23T05:32:31;2.18;81.48
72762;SHT30;60886;55.034;73.150;2022-10-23T05:35:00;2.18;81.03
72762;SHT30;60886;55.034;73.150;2022-10-23T05:37:30;2.28;81.52
72762;SHT30;60886;55.034;73.150;2022-10-23T05:40:10;2.28;81.34
72762;SHT30;60886;55.034;73.150;2022-10-23T05:42:39;2.29;81.57
72762;SHT30;60886;55.034;73.150;2022-10-23T05:45:11;2.39;81.56
72762;SHT30;60886;55.034;73.150;2022-10-23T05:48:03;2.51;80.70
72762;SHT30;60886;55.034;73.150;2022-10-23T05:51:07;2.65;80.79
72762;SHT30;60886;55.034;73.150;2022-10-23T05:53:53;2.71;79.90
72762;SHT30;60886;55.034;73.150;2022-10-23T05:56:32;2.70;81.32
72762;SHT30;60886;55.034;73.150;2022-10-23T05:59:09;2.77;80.66
72762;SHT30;60886;55.034;73.150;2022-10-23T06:02:07;2.80;79.16
72762;SHT30;60886;55.034;73.150;2022-10-23T06:04:45;2.77;79.21
72762;SHT30;60886;55.034;73.150;2022-10-23T06:07:31;2.84;79.78
72762;SHT30;60886;55.034;73.150;2022-10-23T06:10:05;2.90;79.21
72762;SHT30;60886;55.034;73.150;2022-10-23T06:12:33;2.88;78.74
72762;SHT30;60886;55.034;73.150;2022-10-23T06:15:00;2.83;78.27
72762;SHT30;60886;55.034;73.150;2022-10-23T06:17:43;2.85;77.61
72762;SHT30;60886;55.034;73.150;2022-10-23T06:20:09;2.77;78.27
72762;SHT30;60886;55.034;73.150;2022-10-23T06:22:39;2.84;78.11
72762;SHT30;60886;55.034;73.150;2022-10-23T06:25:20;2.90;77.62
72762;SHT30;60886;55.034;73.150;2022-10-23T06:27:46;2.88;78.47
72762;SHT30;60886;55.034;73.150;2022-10-23T06:30:13;2.98;77.67
72762;SHT30;60886;55.034;73.150;2022-10-23T06:32:39;3.01;77.39
72762;SHT30;60886;55.034;73.150;2022-10-23T06:35:16;3.08;77.18
72762;SHT30;60886;55.034;73.150;2022-10-23T06:37:51;3.08;77.52
72762;SHT30;60886;55.034;73.150;2022-10-23T06:40:29;3.15;77.70
72762;SHT30;60886;55.034;73.150;2022-10-23T06:43:01;3.21;76.77
72762;SHT30;60886;55.034;73.150;2022-10-23T06:45:54;3.12;76.79
72762;SHT30;60886;55.034;73.150;2022-10-23T06:48:41;3.21;77.55
72762;SHT30;60886;55.034;73.150;2022-10-23T06:51:23;3.32;77.04
72762;SHT30;60886;55.034;73.150;2022-10-23T06:53:55;3.31;76.08
72762;SHT30;60886;55.034;73.150;2022-10-23T06:56:46;3.31;76.52
72762;SHT30;60886;55.034;73.150;2022-10-23T06:59:14;3.31;76.39
72762;SHT30;60886;55.034;73.150;2022-10-23T07:01:40;3.31;75.42
72762;SHT30;60886;55.034;73.150;2022-10-23T07:04:08;3.34;74.71
72762;SHT30;60886;55.034;73.150;2022-10-23T07:06:34;3.31;76.60
72762;SHT30;60886;55.034;73.150;2022-10-23T07:09:01;3.32;76.64
72762;SHT30;60886;55.034;73.150;2022-10-23T07:11:53;3.29;76.63
72762;SHT30;60886;55.034;73.150;2022-10-23T07:14:26;3.24;75.04
72762;SHT30;60886;55.034;73.150;2022-10-23T07:17:06;3.39;75.86
72762;SHT30;60886;55.034;73.150;2022-10-23T07:19:32;3.32;75.65
72762;SHT30;60886;55.034;73.150;2022-10-23T07:22:09;3.35;75.13
72762;SHT30;60886;55.034;73.150;2022-10-23T07:24:45;3.48;76.71
72762;SHT30;60886;55.034;73.150;2022-10-23T07:27:29;3.42;75.47
72762;SHT30;60886;55.034;73.150;2022-10-23T07:29:59;3.52;75.73
72762;SHT30;60886;55.034;73.150;2022-10-23T07:32:40;3.58;76.27
72762;SHT30;60886;55.034;73.150;2022-10-23T07:35:25;3.60;75.60
72762;SHT30;60886;55.034;73.150;2022-10-23T07:38:02;3.67;75.94
72762;SHT30;60886;55.034;73.150;2022-10-23T07:40:32;3.75;75.80
72762;SHT30;60886;55.034;73.150;2022-10-23T07:42:58;3.77;75.39
72762;SHT30;60886;55.034;73.150;2022-10-23T07:45:25;3.73;76.28
72762;SHT30;60886;55.034;73.150;2022-10-23T07:47:52;3.79;76.55
72762;SHT30;60886;55.034;73.150;2022-10-23T07:50:21;3.83;75.94
72762;SHT30;60886;55.034;73.150;2022-10-23T07:52:48;3.79;75.94
72762;SHT30;60886;55.034;73.150;2022-10-23T07:55:16;3.77;75.87
72762;SHT30;60886;55.034;73.150;2022-10-23T07:57:47;3.67;76.22
72762;SHT30;60886;55.034;73.150;2022-10-23T08:00:26;3.60;75.98
72762;SHT30;60886;55.034;73.150;2022-10-23T08:03:03;3.72;76.54
72762;SHT30;60886;55.034;73.150;2022-10-23T08:05:31;3.80;76.68
72762;SHT30;60886;55.034;73.150;2022-10-23T08:08:00;3.85;76.44
72762;SHT30;60886;55.034;73.150;2022-10-23T08:10:26;3.79;75.82
72762;SHT30;60886;55.034;73.150;2022-10-23T08:12:53;3.77;75.27
72762;SHT30;60886;55.034;73.150;2022-10-23T08:15:26;3.72;75.68
72762;SHT30;60886;55.034;73.150;2022-10-23T08:17:59;3.54;76.23
72762;SHT30;60886;55.034;73.150;2022-10-23T08:20:44;3.43;76.67
72762;SHT30;60886;55.034;73.150;2022-10-23T08:23:20;3.38;77.42
72762;SHT30;60886;55.034;73.150;2022-10-23T08:25:48;3.48;77.06
72762;SHT30;60886;55.034;73.150;2022-10-23T08:28:16;3.54;76.66
72762;SHT30;60886;55.034;73.150;2022-10-23T08:30:51;3.54;77.18
72762;SHT30;60886;55.034;73.150;2022-10-23T08:33:17;3.51;76.07
72762;SHT30;60886;55.034;73.150;2022-10-23T08:35:44;3.54;76.34
72762;SHT30;60886;55.034;73.150;2022-10-23T08:38:10;3.49;76.77
72762;SHT30;60886;55.034;73.150;2022-10-23T08:40:47;3.55;75.88
72762;SHT30;60886;55.034;73.150;2022-10-23T08:43:45;3.56;76.39
72762;SHT30;60886;55.034;73.150;2022-10-23T08:46:34;3.55;76.48
72762;SHT30;60886;55.034;73.150;2022-10-23T08:50:02;3.54;76.04
72762;SHT30;60886;55.034;73.150;2022-10-23T08:52:45;3.43;75.57
72762;SHT30;60886;55.034;73.150;2022-10-23T08:55:32;3.34;76.29
72762;SHT30;60886;55.034;73.150;2022-10-23T08:58:05;3.36;76.35
72762;SHT30;60886;55.034;73.150;2022-10-23T09:00:32;3.35;77.05
72762;SHT30;60886;55.034;73.150;2022-10-23T09:03:01;3.43;76.75
72762;SHT30;60886;55.034;73.150;2022-10-23T09:05:30;3.45;76.77
72762;SHT30;60886;55.034;73.150;2022-10-23T09:10:59;3.39;77.51
72762;SHT30;60886;55.034;73.150;2022-10-23T09:16:20;3.32;76.91
72762;SHT30;60886;55.034;73.150;2022-10-23T09:18:50;3.26;77.12
72762;SHT30;60886;55.034;73.150;2022-10-23T09:21:17;3.29;77.67
72762;SHT30;60886;55.034;73.150;2022-10-23T09:23:48;3.26;77.04
72762;SHT30;60886;55.034;73.150;2022-10-23T09:26:16;3.34;77.40
72762;SHT30;60886;55.034;73.150;2022-10-23T09:28:59;3.32;77.58
72762;SHT30;60886;55.034;73.150;2022-10-23T09:31:27;3.34;77.38
72762;SHT30;60886;55.034;73.150;2022-10-23T09:34:00;3.36;77.11
72762;SHT30;60886;55.034;73.150;2022-10-23T09:36:27;3.26;76.80
72762;SHT30;60886;55.034;73.150;2022-10-23T09:38:56;3.24;77.92
72762;SHT30;60886;55.034;73.150;2022-10-23T09:41:27;3.29;77.36
72762;SHT30;60886;55.034;73.150;2022-10-23T09:46:44;3.18;77.78
72762;SHT30;60886;55.034;73.150;2022-10-23T09:49:21;3.18;77.90
72762;SHT30;60886;55.034;73.150;2022-10-23T09:52:19;3.18;78.45
72762;SHT30;60886;55.034;73.150;2022-10-23T09:54:49;3.15;78.45
72762;SHT30;60886;55.034;73.150;2022-10-23T10:03:04;3.12;78.84
72762;SHT30;60886;55.034;73.150;2022-10-23T10:05:56;3.15;78.28
72762;SHT30;60886;55.034;73.150;2022-10-23T10:08:49;3.16;77.85
72762;SHT30;60886;55.034;73.150;2022-10-23T10:17:03;3.15;77.71
72762;SHT30;60886;55.034;73.150;2022-10-23T10:25:42;3.24;77.28
72762;SHT30;60886;55.034;73.150;2022-10-23T10:33:37;3.19;77.55
72762;SHT30;60886;55.034;73.150;2022-10-23T10:39:30;3.19;77.56
72762;SHT30;60886;55.034;73.150;2022-10-23T10:45:06;3.09;77.60
72762;SHT30;60886;55.034;73.150;2022-10-23T10:50:51;3.15;77.79
72762;SHT30;60886;55.034;73.150;2022-10-23T10:56:16;3.11;77.55
72762;SHT30;60886;55.034;73.150;2022-10-23T10:58:49;3.12;77.43
72762;SHT30;60886;55.034;73.150;2022-10-23T11:06:54;3.12;77.34
72762;SHT30;60886;55.034;73.150;2022-10-23T11:09:27;3.16;77.06
72762;SHT30;60886;55.034;73.150;2022-10-23T11:11:54;3.15;77.38
72762;SHT30;60886;55.034;73.150;2022-10-23T11:14:29;3.18;77.28
72762;SHT30;60886;55.034;73.150;2022-10-23T11:19:57;3.04;77.33
72762;SHT30;60886;55.034;73.150;2022-10-23T11:22:36;3.00;77.35
72762;SHT30;60886;55.034;73.150;2022-10-23T11:30:39;3.05;77.93
72762;SHT30;60886;55.034;73.150;2022-10-23T11:38:29;2.98;77.84
72762;SHT30;60886;55.034;73.150;2022-10-23T11:40:59;2.98;77.66
72762;SHT30;60886;55.034;73.150;2022-10-23T11:46:35;2.88;78.66
72762;SHT30;60886;55.034;73.150;2022-10-23T11:49:04;2.85;78.80
72762;SHT30;60886;55.034;73.150;2022-10-23T11:51:39;2.81;78.38
72762;SHT30;60886;55.034;73.150;2022-10-23T11:54:23;2.81;78.87
72762;SHT30;60886;55.034;73.150;2022-10-23T11:57:09;2.84;78.30
72762;SHT30;60886;55.034;73.150;2022-10-23T12:02:39;2.85;78.31
72762;SHT30;60886;55.034;73.150;2022-10-23T12:05:23;2.81;78.17
72762;SHT30;60886;55.034;73.150;2022-10-23T12:07:56;2.80;77.59
72762;SHT30;60886;55.034;73.150;2022-10-23T12:10:48;2.81;77.64
72762;SHT30;60886;55.034;73.150;2022-10-23T12:16:06;2.88;76.98
72762;SHT30;60886;55.034;73.150;2022-10-23T12:18:52;2.91;76.99
72762;SHT30;60886;55.034;73.150;2022-10-23T12:21:24;2.85;77.11
72762;SHT30;60886;55.034;73.150;2022-10-23T12:24:09;2.84;77.15
72762;SHT30;60886;55.034;73.150;2022-10-23T12:26:45;2.84;77.38
72762;SHT30;60886;55.034;73.150;2022-10-23T12:29:42;2.81;77.63
72762;SHT30;60886;55.034;73.150;2022-10-23T12:38:12;2.67;78.02
72762;SHT30;60886;55.034;73.150;2022-10-23T12:40:44;2.73;78.04
72762;SHT30;60886;55.034;73.150;2022-10-23T12:43:24;2.68;77.73
72762;SHT30;60886;55.034;73.150;2022-10-23T12:46:06;2.70;78.12
72762;SHT30;60886;55.034;73.150;2022-10-23T12:48:49;2.70;77.85
72762;SHT30;60886;55.034;73.150;2022-10-23T12:51:23;2.64;78.25
72762;SHT30;60886;55.034;73.150;2022-10-23T12:53:55;2.61;77.54
72762;SHT30;60886;55.034;73.150;2022-10-23T12:56:23;2.51;77.82
72762;SHT30;60886;55.034;73.150;2022-10-23T12:59:01;2.54;78.25
72762;SHT30;60886;55.034;73.150;2022-10-23T13:01:31;2.51;78.01
72762;SHT30;60886;55.034;73.150;2022-10-23T13:06:43;2.54;77.23
72762;SHT30;60886;55.034;73.150;2022-10-23T13:12:18;2.49;77.50
72762;SHT30;60886;55.034;73.150;2022-10-23T13:17:41;2.50;77.27
72762;SHT30;60886;55.034;73.150;2022-10-23T13:22:45;2.49;77.43
72762;SHT30;60886;55.034;73.150;2022-10-23T13:25:24;2.54;77.09
72762;SHT30;60886;55.034;73.150;2022-10-23T13:30:44;2.65;76.53
72762;SHT30;60886;55.034;73.150;2022-10-23T13:33:25;2.67;75.92
72762;SHT30;60886;55.034;73.150;2022-10-23T13:38:42;2.53;76.87
72762;SHT30;60886;55.034;73.150;2022-10-23T13:41:18;2.56;76.46
72762;SHT30;60886;55.034;73.150;2022-10-23T13:43:46;2.53;76.20
72762;SHT30;60886;55.034;73.150;2022-10-23T13:46:13;2.46;77.08
72762;SHT30;60886;55.034;73.150;2022-10-23T13:48:40;2.47;76.41
72762;SHT30;60886;55.034;73.150;2022-10-23T13:51:14;2.49;76.41
72762;SHT30;60886;55.034;73.150;2022-10-23T13:53:41;2.46;76.21
72762;SHT30;60886;55.034;73.150;2022-10-23T13:56:10;2.51;76.66
72762;SHT30;60886;55.034;73.150;2022-10-23T13:58:37;2.44;76.65
72762;SHT30;60886;55.034;73.150;2022-10-23T14:01:32;2.46;76.66
72762;SHT30;60886;55.034;73.150;2022-10-23T14:03:58;2.47;76.65
72762;SHT30;60886;55.034;73.150;2022-10-23T14:06:25;2.54;76.51
72762;SHT30;60886;55.034;73.150;2022-10-23T14:08:51;2.47;75.75
72762;SHT30;60886;55.034;73.150;2022-10-23T14:11:20;2.39;76.28
72762;SHT30;60886;55.034;73.150;2022-10-23T14:13:51;2.34;76.65
72762;SHT30;60886;55.034;73.150;2022-10-23T14:16:18;2.30;76.75
72762;SHT30;60886;55.034;73.150;2022-10-23T14:18:46;2.25;77.12
72762;SHT30;60886;55.034;73.150;2022-10-23T14:21:23;2.29;76.35
72762;SHT30;60886;55.034;73.150;2022-10-23T14:23:51;2.28;76.12
72762;SHT30;60886;55.034;73.150;2022-10-23T14:26:24;2.28;76.22
72762;SHT30;60886;55.034;73.150;2022-10-23T14:28:57;2.34;76.04
72762;SHT30;60886;55.034;73.150;2022-10-23T14:31:23;2.36;76.36
72762;SHT30;60886;55.034;73.150;2022-10-23T14:34:00;2.37;75.38
72762;SHT30;60886;55.034;73.150;2022-10-23T14:36:27;2.36;75.82
72762;SHT30;60886;55.034;73.150;2022-10-23T14:39:03;2.32;76.66
72762;SHT30;60886;55.034;73.150;2022-10-23T14:41:29;2.25;76.43
72762;SHT30;60886;55.034;73.150;2022-10-23T14:43:56;2.32;76.31
72762;SHT30;60886;55.034;73.150;2022-10-23T14:46:24;2.40;75.69
72762;SHT30;60886;55.034;73.150;2022-10-23T14:48:54;2.30;76.13
72762;SHT30;60886;55.034;73.150;2022-10-23T14:51:25;2.20;76.06
72762;SHT30;60886;55.034;73.150;2022-10-23T14:54:02;2.13;76.85
72762;SHT30;60886;55.034;73.150;2022-10-23T14:56:31;2.10;76.54
72762;SHT30;60886;55.034;73.150;2022-10-23T14:58:59;2.16;76.34
72762;SHT30;60886;55.034;73.150;2022-10-23T15:01:51;2.19;76.52
72762;SHT30;60886;55.034;73.150;2022-10-23T15:04:17;2.16;76.31
72762;SHT30;60886;55.034;73.150;2022-10-23T15:06:43;2.13;76.25
72762;SHT30;60886;55.034;73.150;2022-10-23T15:09:17;2.15;76.29
72762;SHT30;60886;55.034;73.150;2022-10-23T15:11:46;2.20;76.03
72762;SHT30;60886;55.034;73.150;2022-10-23T15:14:13;2.18;76.38
72762;SHT30;60886;55.034;73.150;2022-10-23T15:16:39;2.13;75.62
72762;SHT30;60886;55.034;73.150;2022-10-23T15:19:09;2.18;75.61
72762;SHT30;60886;55.034;73.150;2022-10-23T15:21:36;2.15;75.30
72762;SHT30;60886;55.034;73.150;2022-10-23T15:24:03;2.09;75.75
72762;SHT30;60886;55.034;73.150;2022-10-23T15:26:30;2.03;76.01
72762;SHT30;60886;55.034;73.150;2022-10-23T15:29:00;2.03;76.39
72762;SHT30;60886;55.034;73.150;2022-10-23T15:33:57;2.01;76.96
72762;SHT30;60886;55.034;73.150;2022-10-23T15:36:23;2.06;76.73
72762;SHT30;60886;55.034;73.150;2022-10-23T15:38:54;2.06;76.69
72762;SHT30;60886;55.034;73.150;2022-10-23T15:41:31;2.15;76.43
72762;SHT30;60886;55.034;73.150;2022-10-23T15:44:00;2.08;76.42
72762;SHT30;60886;55.034;73.150;2022-10-23T15:46:27;2.05;76.33
72762;SHT30;60886;55.034;73.150;2022-10-23T15:48:58;2.05;76.34
72762;SHT30;60886;55.034;73.150;2022-10-23T15:51:25;2.02;75.87
72762;SHT30;60886;55.034;73.150;2022-10-23T15:53:51;2.02;75.98
72762;SHT30;60886;55.034;73.150;2022-10-23T15:56:23;2.03;75.51
72762;SHT30;60886;55.034;73.150;2022-10-23T15:58:50;1.96;76.19
72762;SHT30;60886;55.034;73.150;2022-10-23T16:01:17;1.94;75.66
72762;SHT30;60886;55.034;73.150;2022-10-23T16:03:43;1.91;76.35
72762;SHT30;60886;55.034;73.150;2022-10-23T16:06:13;1.88;76.05
72762;SHT30;60886;55.034;73.150;2022-10-23T16:08:40;1.85;76.04
72762;SHT30;60886;55.034;73.150;2022-10-23T16:11:22;1.91;76.06
72762;SHT30;60886;55.034;73.150;2022-10-23T16:13:49;1.86;76.02
72762;SHT30;60886;55.034;73.150;2022-10-23T16:16:16;1.89;75.62
72762;SHT30;60886;55.034;73.150;2022-10-23T16:18:42;1.91;75.51
72762;SHT30;60886;55.034;73.150;2022-10-23T16:21:21;1.89;75.37
72762;SHT30;60886;55.034;73.150;2022-10-23T16:23:52;1.91;75.29
72762;SHT30;60886;55.034;73.150;2022-10-23T16:26:19;1.91;74.58
72762;SHT30;60886;55.034;73.150;2022-10-23T16:28:46;1.86;74.91
72762;SHT30;60886;55.034;73.150;2022-10-23T16:31:16;1.86;75.14
72762;SHT30;60886;55.034;73.150;2022-10-23T16:33:43;1.86;75.04
72762;SHT30;60886;55.034;73.150;2022-10-23T16:36:10;1.78;74.57
72762;SHT30;60886;55.034;73.150;2022-10-23T16:39:05;1.76;75.19
72762;SHT30;60886;55.034;73.150;2022-10-23T16:42:08;1.83;74.88
72762;SHT30;60886;55.034;73.150;2022-10-23T16:45:11;1.75;75.17
72762;SHT30;60886;55.034;73.150;2022-10-23T16:47:43;1.82;75.14
72762;SHT30;60886;55.034;73.150;2022-10-23T16:50:09;1.76;75.84
72762;SHT30;60886;55.034;73.150;2022-10-23T16:52:35;1.76;75.19
72762;SHT30;60886;55.034;73.150;2022-10-23T16:55:02;1.79;75.48
72762;SHT30;60886;55.034;73.150;2022-10-23T16:57:28;1.81;75.46
72762;SHT30;60886;55.034;73.150;2022-10-23T16:59:54;1.82;75.37
72762;SHT30;60886;55.034;73.150;2022-10-23T17:02:20;1.78;75.36
72762;SHT30;60886;55.034;73.150;2022-10-23T17:04:47;1.75;75.68
72762;SHT30;60886;55.034;73.150;2022-10-23T17:07:13;1.75;75.68
72762;SHT30;60886;55.034;73.150;2022-10-23T17:09:39;1.74;76.33
72762;SHT30;60886;55.034;73.150;2022-10-23T17:12:18;1.65;76.35
72762;SHT30;60886;55.034;73.150;2022-10-23T17:14:54;1.68;76.11
72762;SHT30;60886;55.034;73.150;2022-10-23T17:17:21;1.69;76.33
72762;SHT30;60886;55.034;73.150;2022-10-23T17:19:52;1.74;75.62
72762;SHT30;60886;55.034;73.150;2022-10-23T17:22:18;1.76;75.91
72762;SHT30;60886;55.034;73.150;2022-10-23T17:24:44;1.76;76.69
72762;SHT30;60886;55.034;73.150;2022-10-23T17:27:11;1.69;76.53
72762;SHT30;60886;55.034;73.150;2022-10-23T17:29:37;1.71;76.22
72762;SHT30;60886;55.034;73.150;2022-10-23T17:32:04;1.68;76.53
72762;SHT30;60886;55.034;73.150;2022-10-23T17:34:31;1.69;76.72
72762;SHT30;60886;55.034;73.150;2022-10-23T17:36:57;1.69;76.46
72762;SHT30;60886;55.034;73.150;2022-10-23T17:39:28;1.69;76.32
72762;SHT30;60886;55.034;73.150;2022-10-23T17:41:55;1.65;76.71
72762;SHT30;60886;55.034;73.150;2022-10-23T17:44:21;1.66;76.85
72762;SHT30;60886;55.034;73.150;2022-10-23T17:46:52;1.64;76.98
72762;SHT30;60886;55.034;73.150;2022-10-23T17:49:19;1.64;77.13
72762;SHT30;60886;55.034;73.150;2022-10-23T17:51:50;1.62;77.39
72762;SHT30;60886;55.034;73.150;2022-10-23T17:54:26;1.66;76.90
72762;SHT30;60886;55.034;73.150;2022-10-23T17:56:53;1.66;77.07
72762;SHT30;60886;55.034;73.150;2022-10-23T17:59:20;1.69;77.12
72762;SHT30;60886;55.034;73.150;2022-10-23T18:01:47;1.69;77.34
72762;SHT30;60886;55.034;73.150;2022-10-23T18:04:14;1.62;77.51
72762;SHT30;60886;55.034;73.150;2022-10-23T18:06:49;1.62;77.48
72762;SHT30;60886;55.034;73.150;2022-10-23T18:09:15;1.62;77.67
72762;SHT30;60886;55.034;73.150;2022-10-23T18:11:43;1.62;77.75
72762;SHT30;60886;55.034;73.150;2022-10-23T18:14:11;1.66;77.73
72762;SHT30;60886;55.034;73.150;2022-10-23T18:16:38;1.61;77.33
72762;SHT30;60886;55.034;73.150;2022-10-23T18:19:16;1.66;77.83